createdAt,value
2022-12-08T08:32:46.339Z,43.62
2022-12-08T08:32:57.619Z,43.39
2022-12-08T08:33:09.169Z,43.09
2022-12-08T08:33:20.469Z,43.02
2022-12-08T08:33:32.019Z,42.95
2022-12-08T08:33:43.315Z,42.94
2022-12-08T08:33:54.861Z,42.91
2022-12-08T08:34:06.524Z,42.89
2022-12-08T08:34:18.253Z,42.87
2022-12-08T08:34:29.562Z,42.83
2022-12-08T08:34:41.114Z,42.84
2022-12-08T08:34:52.416Z,42.81
2022-12-08T08:35:03.973Z,42.80
2022-12-08T08:35:15.261Z,42.81
2022-12-08T08:35:26.816Z,42.76
2022-12-08T08:35:38.098Z,42.77
2022-12-08T08:35:49.629Z,42.75
2022-12-08T08:36:00.911Z,42.73
2022-12-08T08:36:12.466Z,42.74
2022-12-08T08:36:23.750Z,42.69
2022-12-08T08:36:35.289Z,42.67
2022-12-08T08:36:46.642Z,42.64
2022-12-08T08:36:58.327Z,42.67
2022-12-08T08:37:09.682Z,42.63
2022-12-08T08:37:21.289Z,42.64
2022-12-08T08:37:32.613Z,42.63
2022-12-08T08:37:48.638Z,42.63
2022-12-08T08:37:56.110Z,42.72
2022-12-08T08:38:07.406Z,42.64
2022-12-08T08:38:18.949Z,42.60
2022-12-08T08:38:30.227Z,42.61
2022-12-08T08:38:41.768Z,42.61
2022-12-08T08:38:53.060Z,42.58
2022-12-08T08:39:04.681Z,42.57
2022-12-08T08:39:15.982Z,42.58
2022-12-08T08:39:27.544Z,42.56
2022-12-08T08:39:38.837Z,42.56
2022-12-08T08:39:50.385Z,42.53
2022-12-08T08:40:02.009Z,42.54
2022-12-08T08:40:13.785Z,42.53
2022-12-08T08:40:25.154Z,42.53
2022-12-08T08:40:36.728Z,42.51
2022-12-08T08:40:48.005Z,42.51
2022-12-08T08:40:59.541Z,42.49
2022-12-08T08:41:10.816Z,42.48
2022-12-08T08:41:22.351Z,42.49
2022-12-08T08:41:33.628Z,42.49
2022-12-08T08:41:45.172Z,42.46
2022-12-08T08:41:56.464Z,42.50
2022-12-08T08:42:08.009Z,42.48
2022-12-08T08:42:19.296Z,42.47
2022-12-08T08:42:30.849Z,42.46
2022-12-08T08:42:42.133Z,42.44
2022-12-08T08:42:53.662Z,42.45
2022-12-08T08:43:04.998Z,42.44
2022-12-08T08:43:16.538Z,42.44
2022-12-08T08:43:30.434Z,42.42
2022-12-08T08:43:39.757Z,42.55
2022-12-08T08:43:51.041Z,42.49
2022-12-08T08:44:02.573Z,42.44
2022-12-08T08:44:13.861Z,42.44
2022-12-08T08:44:25.399Z,42.42
2022-12-08T08:44:36.675Z,42.42
2022-12-08T08:44:48.212Z,42.40
2022-12-08T08:44:59.484Z,42.42
2022-12-08T08:45:11.027Z,42.39
2022-12-08T08:45:22.328Z,42.42
2022-12-08T08:45:33.876Z,42.42
2022-12-08T08:45:45.157Z,42.39
2022-12-08T08:45:56.760Z,42.41
2022-12-08T08:46:08.147Z,42.39
2022-12-08T08:46:19.723Z,42.38
2022-12-08T08:46:31.107Z,42.37
2022-12-08T08:46:42.834Z,42.38
2022-12-08T08:46:54.273Z,42.39
2022-12-08T08:47:05.878Z,42.38
2022-12-08T08:47:17.147Z,42.34
2022-12-08T08:47:28.691Z,42.37
2022-12-08T08:47:39.976Z,42.38
2022-12-08T08:47:51.540Z,42.35
2022-12-08T08:48:02.824Z,42.35
2022-12-08T08:48:14.418Z,42.37
2022-12-08T08:48:25.705Z,42.36
2022-12-08T08:48:37.238Z,42.34
2022-12-08T08:48:48.511Z,42.35
2022-12-08T08:49:00.047Z,42.34
2022-12-08T08:49:11.340Z,42.34
2022-12-08T08:49:22.882Z,42.32
2022-12-08T08:49:34.248Z,42.34
2022-12-08T08:49:45.792Z,42.33
2022-12-08T08:49:57.094Z,42.37
2022-12-08T08:50:09.057Z,42.33
2022-12-08T08:50:20.741Z,42.26
2022-12-08T08:50:37.309Z,42.28
2022-12-08T08:50:43.962Z,42.46
2022-12-08T08:50:55.268Z,42.38
2022-12-08T08:51:06.830Z,42.33
2022-12-08T08:51:18.118Z,42.33
2022-12-08T08:51:29.665Z,42.33
2022-12-08T08:51:40.950Z,42.29
2022-12-08T08:51:52.504Z,42.31
2022-12-08T08:52:03.805Z,42.30
2022-12-08T08:52:15.358Z,42.30
2022-12-08T08:52:26.652Z,42.30
2022-12-08T08:52:38.206Z,42.29
2022-12-08T08:52:49.519Z,42.29
2022-12-08T08:53:01.064Z,42.31
2022-12-08T08:53:12.352Z,42.29
2022-12-08T08:53:23.938Z,42.26
2022-12-08T08:53:35.225Z,42.30
2022-12-08T08:53:46.781Z,42.30
2022-12-08T08:53:58.114Z,42.29
2022-12-08T08:54:09.680Z,42.30
2022-12-08T08:54:20.982Z,42.30
2022-12-08T08:54:32.533Z,42.28
2022-12-08T08:54:43.833Z,42.27
2022-12-08T08:54:55.374Z,42.27
2022-12-08T08:55:06.658Z,42.28
2022-12-08T08:55:18.191Z,42.28
2022-12-08T08:55:29.470Z,42.27
2022-12-08T08:55:40.998Z,42.26
2022-12-08T08:55:52.277Z,42.25
2022-12-08T08:56:03.819Z,42.26
2022-12-08T08:56:15.111Z,42.26
2022-12-08T08:56:26.661Z,42.23
2022-12-08T08:56:37.986Z,42.24
2022-12-08T08:56:49.537Z,42.25
2022-12-08T08:57:00.835Z,42.26
2022-12-08T08:57:12.384Z,42.25
2022-12-08T08:57:25.742Z,42.23
2022-12-08T08:57:35.297Z,42.32
2022-12-08T08:57:46.833Z,42.24
2022-12-08T08:57:58.105Z,42.26
2022-12-08T08:58:09.647Z,42.24
2022-12-08T08:58:20.930Z,42.24
2022-12-08T08:58:32.486Z,42.28
2022-12-08T08:58:43.776Z,42.23
2022-12-08T08:58:55.320Z,42.23
2022-12-08T08:59:06.594Z,42.24
2022-12-08T08:59:18.139Z,42.23
2022-12-08T08:59:29.433Z,42.24
2022-12-08T08:59:40.979Z,42.21
2022-12-08T08:59:52.262Z,42.21
2022-12-08T09:00:04.244Z,42.22
2022-12-08T09:00:15.978Z,42.18
2022-12-08T09:00:27.262Z,42.20
2022-12-08T09:00:38.830Z,42.23
2022-12-08T09:00:50.163Z,42.21
2022-12-08T09:01:01.706Z,42.21
2022-12-08T09:01:13.100Z,42.21
2022-12-08T09:01:24.812Z,42.21
2022-12-08T09:01:36.206Z,42.23
2022-12-08T09:01:47.878Z,42.21
2022-12-08T09:01:59.265Z,42.24
2022-12-08T09:02:10.943Z,42.20
2022-12-08T09:02:22.315Z,42.22
2022-12-08T09:02:33.855Z,42.19
2022-12-08T09:02:45.135Z,42.20
2022-12-08T09:02:56.700Z,42.20
2022-12-08T09:03:07.984Z,42.19
2022-12-08T09:03:19.522Z,42.18
2022-12-08T09:03:30.812Z,42.20
2022-12-08T09:03:42.394Z,42.19
2022-12-08T09:03:53.692Z,42.19
2022-12-08T09:04:05.352Z,42.16
2022-12-08T09:04:16.787Z,42.17
2022-12-08T09:04:28.454Z,42.17
2022-12-08T09:04:39.811Z,42.16
2022-12-08T09:04:51.473Z,42.17
2022-12-08T09:05:03.006Z,42.15
2022-12-08T09:05:14.560Z,42.17
2022-12-08T09:05:25.841Z,42.18
2022-12-08T09:05:37.450Z,42.17
2022-12-08T09:05:48.801Z,42.17
2022-12-08T09:06:00.485Z,42.15
2022-12-08T09:06:11.965Z,42.15
2022-12-08T09:06:23.649Z,42.18
2022-12-08T09:06:35.050Z,42.16
2022-12-08T09:06:46.616Z,42.17
2022-12-08T09:06:57.910Z,42.16
2022-12-08T09:07:09.439Z,42.14
2022-12-08T09:07:20.726Z,42.11
2022-12-08T09:07:32.271Z,42.15
2022-12-08T09:07:43.662Z,42.17
2022-12-08T09:07:55.376Z,42.13
2022-12-08T09:08:06.786Z,42.18
2022-12-08T09:08:18.400Z,42.17
2022-12-08T09:08:29.897Z,42.14
2022-12-08T09:08:41.515Z,42.12
2022-12-08T09:08:52.849Z,42.14
2022-12-08T09:09:04.384Z,42.13
2022-12-08T09:09:15.679Z,42.15
2022-12-08T09:09:27.216Z,42.11
2022-12-08T09:09:38.521Z,42.13
2022-12-08T09:09:50.078Z,42.14
2022-12-08T09:10:02.318Z,42.11
2022-12-08T09:10:11.747Z,42.18
2022-12-08T09:10:23.300Z,42.13
2022-12-08T09:10:34.589Z,42.11
2022-12-08T09:10:46.134Z,42.13
2022-12-08T09:10:57.433Z,42.11
2022-12-08T09:11:08.984Z,42.12
2022-12-08T09:11:20.276Z,42.09
2022-12-08T09:11:31.897Z,42.11
2022-12-08T09:11:43.172Z,42.11
2022-12-08T09:11:54.755Z,42.12
2022-12-08T09:12:06.053Z,42.13
2022-12-08T09:12:17.617Z,42.10
2022-12-08T09:12:28.911Z,42.09
2022-12-08T09:12:40.455Z,42.09
2022-12-08T09:12:51.743Z,42.13
2022-12-08T09:13:03.295Z,42.10
2022-12-08T09:13:14.579Z,42.10
2022-12-08T09:13:26.114Z,42.07
2022-12-08T09:13:37.388Z,42.12
2022-12-08T09:13:48.919Z,42.07
2022-12-08T09:14:00.240Z,42.08
2022-12-08T09:14:11.795Z,42.07
2022-12-08T09:14:23.081Z,42.09
2022-12-08T09:14:34.613Z,42.09
2022-12-08T09:14:45.890Z,42.09
2022-12-08T09:14:57.419Z,42.09
2022-12-08T09:15:08.705Z,42.07
2022-12-08T09:15:20.253Z,42.07
2022-12-08T09:15:31.540Z,42.07
2022-12-08T09:15:43.188Z,42.07
2022-12-08T09:15:54.584Z,42.08
2022-12-08T09:16:06.240Z,42.07
2022-12-08T09:16:17.777Z,42.07
2022-12-08T09:16:29.567Z,42.07
2022-12-08T09:16:42.563Z,42.10
2022-12-08T09:16:51.977Z,42.15
2022-12-08T09:17:03.558Z,42.09
2022-12-08T09:17:14.856Z,42.08
2022-12-08T09:17:26.407Z,42.08
2022-12-08T09:17:37.691Z,42.06
2022-12-08T09:17:49.250Z,42.08
2022-12-08T09:18:00.569Z,42.08
2022-12-08T09:18:12.131Z,42.06
2022-12-08T09:18:23.413Z,42.05
2022-12-08T09:18:34.955Z,42.03
2022-12-08T09:18:46.254Z,42.04
2022-12-08T09:18:57.798Z,42.05
2022-12-08T09:19:09.136Z,42.04
2022-12-08T09:19:20.680Z,42.06
2022-12-08T09:19:31.962Z,42.06
2022-12-08T09:19:43.494Z,42.06
2022-12-08T09:19:54.820Z,42.03
2022-12-08T09:20:06.828Z,42.06
2022-12-08T09:20:18.553Z,41.98
2022-12-08T09:20:29.849Z,42.02
2022-12-08T09:20:41.408Z,42.05
2022-12-08T09:20:52.693Z,42.02
2022-12-08T09:21:04.234Z,42.01
2022-12-08T09:21:15.521Z,42.03
2022-12-08T09:21:27.067Z,42.03
2022-12-08T09:21:38.358Z,42.03
2022-12-08T09:21:49.912Z,42.03
2022-12-08T09:22:01.218Z,42.01
2022-12-08T09:22:12.772Z,42.01
2022-12-08T09:22:24.060Z,42.00
2022-12-08T09:22:35.601Z,42.03
2022-12-08T09:22:46.888Z,42.02
2022-12-08T09:22:58.431Z,42.01
2022-12-08T09:23:09.713Z,41.99
2022-12-08T09:23:21.249Z,42.02
2022-12-08T09:23:35.662Z,42.02
2022-12-08T09:23:42.947Z,42.12
2022-12-08T09:23:54.246Z,42.08
2022-12-08T09:24:05.858Z,42.02
2022-12-08T09:24:17.248Z,42.03
2022-12-08T09:24:28.802Z,42.02
2022-12-08T09:24:40.083Z,42.00
2022-12-08T09:24:51.626Z,42.02
2022-12-08T09:25:02.900Z,42.03
2022-12-08T09:25:14.453Z,42.02
2022-12-08T09:25:25.749Z,42.01
2022-12-08T09:25:37.310Z,42.01
2022-12-08T09:25:48.604Z,42.03
2022-12-08T09:26:00.151Z,41.99
2022-12-08T09:26:11.424Z,42.01
2022-12-08T09:26:22.964Z,41.98
2022-12-08T09:26:34.249Z,41.97
2022-12-08T09:26:45.805Z,41.98
2022-12-08T09:26:57.111Z,42.01
2022-12-08T09:27:08.691Z,41.99
2022-12-08T09:27:19.978Z,41.97
2022-12-08T09:27:31.520Z,41.98
2022-12-08T09:27:42.812Z,41.97
2022-12-08T09:27:54.356Z,41.98
2022-12-08T09:28:05.647Z,41.97
2022-12-08T09:28:17.199Z,41.98
2022-12-08T09:28:28.501Z,41.98
2022-12-08T09:28:40.053Z,42.00
2022-12-08T09:28:51.335Z,41.96
2022-12-08T09:29:02.872Z,41.96
2022-12-08T09:29:14.160Z,41.99
2022-12-08T09:29:29.790Z,41.97
2022-12-08T09:29:37.677Z,42.05
2022-12-08T09:29:48.961Z,42.02
2022-12-08T09:30:00.525Z,41.98
2022-12-08T09:30:11.800Z,41.96
2022-12-08T09:30:23.439Z,41.98
2022-12-08T09:30:34.802Z,41.98
2022-12-08T09:30:46.349Z,41.97
2022-12-08T09:30:57.651Z,41.96
2022-12-08T09:31:09.304Z,41.97
2022-12-08T09:31:20.728Z,41.98
2022-12-08T09:31:32.375Z,41.96
2022-12-08T09:31:43.819Z,41.98
2022-12-08T09:31:55.518Z,41.97
2022-12-08T09:32:06.842Z,41.98
2022-12-08T09:32:18.403Z,41.96
2022-12-08T09:32:29.698Z,41.94
2022-12-08T09:32:41.245Z,41.97
2022-12-08T09:32:52.546Z,41.94
2022-12-08T09:33:04.115Z,41.97
2022-12-08T09:33:15.389Z,41.99
2022-12-08T09:33:26.935Z,41.96
2022-12-08T09:33:38.206Z,41.96
2022-12-08T09:33:49.748Z,41.93
2022-12-08T09:34:01.049Z,41.95
2022-12-08T09:34:12.601Z,41.93
2022-12-08T09:34:23.885Z,41.92
2022-12-08T09:34:35.672Z,41.96
2022-12-08T09:34:51.908Z,41.97
2022-12-08T09:34:58.898Z,42.11
2022-12-08T09:35:10.202Z,42.01
2022-12-08T09:35:21.806Z,41.96
2022-12-08T09:35:33.097Z,41.97
2022-12-08T09:35:44.655Z,41.96
2022-12-08T09:35:55.948Z,41.94
2022-12-08T09:36:07.493Z,41.95
2022-12-08T09:36:18.780Z,41.98
2022-12-08T09:36:30.328Z,41.92
2022-12-08T09:36:41.626Z,41.95
2022-12-08T09:36:53.168Z,41.96
2022-12-08T09:37:04.447Z,41.96
2022-12-08T09:37:15.993Z,41.93
2022-12-08T09:37:27.284Z,41.94
2022-12-08T09:37:38.833Z,41.95
2022-12-08T09:37:50.123Z,41.95
2022-12-08T09:38:01.651Z,41.95
2022-12-08T09:38:12.938Z,41.94
2022-12-08T09:38:24.488Z,41.90
2022-12-08T09:38:35.776Z,41.92
2022-12-08T09:38:47.316Z,41.96
2022-12-08T09:38:58.611Z,41.93
2022-12-08T09:39:10.165Z,41.94
2022-12-08T09:39:21.452Z,41.92
2022-12-08T09:39:33.001Z,41.92
2022-12-08T09:39:44.346Z,41.93
2022-12-08T09:39:55.891Z,41.92
2022-12-08T09:40:07.711Z,41.94
2022-12-08T09:40:19.464Z,41.93
2022-12-08T09:40:30.747Z,41.93
2022-12-08T09:40:42.300Z,41.94
2022-12-08T09:40:53.602Z,41.93
2022-12-08T09:41:05.152Z,41.93
2022-12-08T09:41:16.427Z,41.91
2022-12-08T09:41:32.218Z,41.91
2022-12-08T09:41:46.426Z,42.00
2022-12-08T09:41:51.827Z,42.06
2022-12-08T09:42:03.111Z,41.99
2022-12-08T09:42:14.649Z,41.95
2022-12-08T09:42:25.938Z,41.94
2022-12-08T09:42:37.476Z,41.91
2022-12-08T09:42:48.772Z,41.91
2022-12-08T09:43:00.314Z,41.91
2022-12-08T09:43:11.611Z,41.91
2022-12-08T09:43:23.157Z,41.91
2022-12-08T09:43:34.439Z,41.93
2022-12-08T09:43:45.989Z,41.92
2022-12-08T09:43:57.270Z,41.90
2022-12-08T09:44:08.808Z,41.92
2022-12-08T09:44:20.089Z,41.94
2022-12-08T09:44:31.630Z,41.89
2022-12-08T09:44:42.932Z,41.92
2022-12-08T09:44:54.555Z,41.90
2022-12-08T09:45:05.832Z,41.91
2022-12-08T09:45:17.365Z,41.91
2022-12-08T09:45:28.636Z,41.91
2022-12-08T09:45:40.175Z,41.90
2022-12-08T09:45:51.460Z,41.89
2022-12-08T09:46:03.109Z,41.89
2022-12-08T09:46:14.475Z,41.89
2022-12-08T09:46:26.159Z,41.91
2022-12-08T09:46:37.566Z,41.91
2022-12-08T09:46:49.232Z,41.91
2022-12-08T09:47:00.683Z,41.89
2022-12-08T09:47:12.284Z,41.89
2022-12-08T09:47:23.575Z,41.91
2022-12-08T09:47:36.292Z,41.89
2022-12-08T09:47:45.683Z,41.88
2022-12-08T09:47:57.212Z,41.88
2022-12-08T09:48:08.591Z,41.89
2022-12-08T09:48:20.140Z,41.90
2022-12-08T09:48:31.426Z,41.88
2022-12-08T09:48:42.965Z,41.90
2022-12-08T09:48:54.256Z,41.88
2022-12-08T09:49:05.796Z,41.87
2022-12-08T09:49:17.082Z,41.89
2022-12-08T09:49:28.637Z,41.89
2022-12-08T09:49:39.935Z,41.90
2022-12-08T09:49:51.477Z,41.89
2022-12-08T09:50:03.564Z,41.89
2022-12-08T09:50:12.968Z,41.92
2022-12-08T09:50:24.499Z,41.89
2022-12-08T09:50:35.779Z,41.90
2022-12-08T09:50:47.321Z,41.86
2022-12-08T09:50:58.606Z,41.88
2022-12-08T09:51:10.141Z,41.87
2022-12-08T09:51:21.437Z,41.86
2022-12-08T09:51:32.991Z,41.87
2022-12-08T09:51:44.283Z,41.87
2022-12-08T09:51:55.843Z,41.85
2022-12-08T09:52:07.145Z,41.87
2022-12-08T09:52:18.741Z,41.84
2022-12-08T09:52:30.088Z,41.86
2022-12-08T09:52:41.685Z,41.87
2022-12-08T09:52:53.314Z,41.89
2022-12-08T09:53:05.017Z,41.89
2022-12-08T09:53:16.313Z,41.87
2022-12-08T09:53:33.695Z,41.88
2022-12-08T09:53:39.830Z,41.97
2022-12-08T09:53:51.132Z,41.92
2022-12-08T09:54:02.755Z,41.87
2022-12-08T09:54:14.145Z,41.89
2022-12-08T09:54:25.707Z,41.85
2022-12-08T09:54:37.005Z,41.88
2022-12-08T09:54:48.569Z,41.86
2022-12-08T09:54:59.853Z,41.86
2022-12-08T09:55:11.442Z,41.85
2022-12-08T09:55:22.738Z,41.85
2022-12-08T09:55:34.283Z,41.84
2022-12-08T09:55:45.567Z,41.85
2022-12-08T09:55:57.110Z,41.86
2022-12-08T09:56:08.405Z,41.88
2022-12-08T09:56:19.950Z,41.87
2022-12-08T09:56:31.239Z,41.85
2022-12-08T09:56:42.790Z,41.88
2022-12-08T09:56:54.086Z,41.86
2022-12-08T09:57:05.630Z,41.84
2022-12-08T09:57:16.944Z,41.85
2022-12-08T09:57:28.486Z,41.85
2022-12-08T09:57:39.774Z,41.86
2022-12-08T09:57:56.158Z,41.86
2022-12-08T09:58:03.240Z,41.95
2022-12-08T09:58:14.526Z,41.87
2022-12-08T09:58:26.079Z,41.86
2022-12-08T09:58:37.374Z,41.87
2022-12-08T09:58:48.922Z,41.84
2022-12-08T09:59:00.203Z,41.86
2022-12-08T09:59:11.747Z,41.86
2022-12-08T09:59:23.021Z,41.83
2022-12-08T09:59:34.578Z,41.86
2022-12-08T09:59:45.863Z,41.83
2022-12-08T09:59:57.426Z,41.84
2022-12-08T10:00:08.812Z,41.84
2022-12-08T10:00:20.556Z,41.86
2022-12-08T10:00:31.874Z,41.84
2022-12-08T10:00:43.421Z,41.82
2022-12-08T10:00:54.729Z,41.85
2022-12-08T10:01:06.301Z,41.80
2022-12-08T10:01:17.676Z,41.84
2022-12-08T10:01:29.338Z,41.83
2022-12-08T10:01:40.809Z,41.84
2022-12-08T10:01:52.511Z,41.83
2022-12-08T10:02:03.894Z,41.83
2022-12-08T10:02:15.589Z,41.84
2022-12-08T10:02:26.916Z,41.82
2022-12-08T10:02:38.474Z,41.82
2022-12-08T10:02:49.771Z,41.84
2022-12-08T10:03:01.316Z,41.85
2022-12-08T10:03:16.657Z,41.82
2022-12-08T10:03:24.161Z,41.99
2022-12-08T10:03:35.463Z,41.92
2022-12-08T10:03:47.010Z,41.86
2022-12-08T10:03:58.306Z,41.84
2022-12-08T10:04:09.878Z,41.84
2022-12-08T10:04:21.162Z,41.85
2022-12-08T10:04:32.854Z,41.85
2022-12-08T10:04:44.326Z,41.85
2022-12-08T10:04:56.054Z,41.82
2022-12-08T10:05:07.491Z,41.85
2022-12-08T10:05:19.123Z,41.85
2022-12-08T10:05:30.561Z,41.84
2022-12-08T10:05:42.157Z,41.85
2022-12-08T10:05:53.443Z,41.83
2022-12-08T10:06:04.989Z,41.84
2022-12-08T10:06:16.301Z,41.83
2022-12-08T10:06:27.846Z,41.84
2022-12-08T10:06:39.134Z,41.84
2022-12-08T10:06:50.670Z,41.83
2022-12-08T10:07:01.973Z,41.85
2022-12-08T10:07:13.515Z,41.85
2022-12-08T10:07:24.799Z,41.81
2022-12-08T10:07:36.438Z,41.83
2022-12-08T10:07:47.892Z,41.86
2022-12-08T10:07:59.526Z,41.85
2022-12-08T10:08:10.911Z,41.84
2022-12-08T10:08:22.567Z,41.81
2022-12-08T10:08:34.004Z,41.84
2022-12-08T10:08:45.583Z,41.82
2022-12-08T10:08:56.860Z,41.84
2022-12-08T10:09:11.184Z,41.82
2022-12-08T10:09:22.661Z,41.88
2022-12-08T10:09:30.083Z,41.90
2022-12-08T10:09:41.359Z,41.88
2022-12-08T10:09:52.891Z,41.83
2022-12-08T10:10:04.599Z,41.82
2022-12-08T10:10:16.374Z,41.84
2022-12-08T10:10:27.658Z,41.84
2022-12-08T10:10:39.255Z,41.82
2022-12-08T10:10:50.547Z,41.83
2022-12-08T10:11:02.082Z,41.80
2022-12-08T10:11:13.364Z,41.81
2022-12-08T10:11:24.914Z,41.81
2022-12-08T10:11:36.203Z,41.81
2022-12-08T10:11:47.752Z,41.81
2022-12-08T10:11:59.046Z,41.82
2022-12-08T10:12:10.602Z,41.82
2022-12-08T10:12:21.888Z,41.81
2022-12-08T10:12:33.431Z,41.81
2022-12-08T10:12:44.706Z,41.82
2022-12-08T10:12:56.245Z,41.81
2022-12-08T10:13:07.539Z,41.82
2022-12-08T10:13:19.077Z,41.81
2022-12-08T10:13:30.367Z,41.81
2022-12-08T10:13:41.925Z,41.81
2022-12-08T10:13:53.217Z,41.80
2022-12-08T10:14:04.766Z,41.82
2022-12-08T10:14:16.054Z,41.82
2022-12-08T10:14:27.611Z,41.81
2022-12-08T10:14:38.916Z,41.80
2022-12-08T10:14:50.455Z,41.80
2022-12-08T10:15:01.743Z,41.79
2022-12-08T10:15:13.281Z,41.78
2022-12-08T10:15:24.562Z,41.79
2022-12-08T10:15:36.111Z,41.79
2022-12-08T10:15:47.531Z,41.81
2022-12-08T10:15:59.242Z,41.81
2022-12-08T10:16:14.016Z,41.79
2022-12-08T10:16:29.289Z,41.96
2022-12-08T10:16:34.489Z,41.94
2022-12-08T10:16:45.875Z,41.86
2022-12-08T10:16:57.554Z,41.83
2022-12-08T10:17:08.954Z,41.81
2022-12-08T10:17:20.636Z,41.83
2022-12-08T10:17:31.944Z,41.81
2022-12-08T10:17:43.491Z,41.81
2022-12-08T10:17:54.778Z,41.79
2022-12-08T10:18:06.327Z,41.80
2022-12-08T10:18:17.646Z,41.82
2022-12-08T10:18:29.196Z,41.81
2022-12-08T10:18:40.513Z,41.81
2022-12-08T10:18:52.049Z,41.79
2022-12-08T10:19:03.319Z,41.83
2022-12-08T10:19:14.862Z,41.78
2022-12-08T10:19:26.147Z,41.79
2022-12-08T10:19:37.679Z,41.78
2022-12-08T10:19:48.965Z,41.78
2022-12-08T10:20:00.539Z,41.81
2022-12-08T10:20:11.825Z,41.80
2022-12-08T10:20:23.363Z,41.78
2022-12-08T10:20:34.661Z,41.78
2022-12-08T10:20:46.223Z,41.81
2022-12-08T10:20:57.557Z,41.80
2022-12-08T10:21:09.120Z,41.81
2022-12-08T10:21:20.419Z,41.77
2022-12-08T10:21:31.971Z,41.81
2022-12-08T10:21:43.258Z,41.79
2022-12-08T10:21:54.808Z,41.78
2022-12-08T10:22:06.094Z,41.80
2022-12-08T10:22:17.649Z,41.79
2022-12-08T10:22:28.935Z,41.79
2022-12-08T10:22:44.761Z,41.80
2022-12-08T10:22:52.178Z,41.88
2022-12-08T10:23:03.470Z,41.83
2022-12-08T10:23:15.007Z,41.78
2022-12-08T10:23:26.295Z,41.79
2022-12-08T10:23:37.856Z,41.79
2022-12-08T10:23:49.146Z,41.76
2022-12-08T10:24:00.694Z,41.76
2022-12-08T10:24:12.002Z,41.77
2022-12-08T10:24:23.537Z,41.76
2022-12-08T10:24:34.820Z,41.79
2022-12-08T10:24:46.375Z,41.77
2022-12-08T10:24:57.674Z,41.78
2022-12-08T10:25:09.204Z,41.78
2022-12-08T10:25:20.492Z,41.76
2022-12-08T10:25:32.041Z,41.76
2022-12-08T10:25:43.337Z,41.75
2022-12-08T10:25:54.891Z,41.77
2022-12-08T10:26:06.192Z,41.80
2022-12-08T10:26:17.742Z,41.76
2022-12-08T10:26:29.037Z,41.76
2022-12-08T10:26:40.594Z,41.78
2022-12-08T10:26:51.897Z,41.78
2022-12-08T10:27:03.438Z,41.77
2022-12-08T10:27:14.731Z,41.78
2022-12-08T10:27:26.276Z,41.76
2022-12-08T10:27:37.575Z,41.76
2022-12-08T10:27:49.116Z,41.78
2022-12-08T10:28:00.402Z,41.76
2022-12-08T10:28:11.952Z,41.75
2022-12-08T10:28:23.230Z,41.77
2022-12-08T10:28:37.631Z,41.77
2022-12-08T10:28:46.695Z,41.89
2022-12-08T10:28:57.982Z,41.81
2022-12-08T10:29:09.513Z,41.77
2022-12-08T10:29:20.798Z,41.77
2022-12-08T10:29:32.327Z,41.78
2022-12-08T10:29:43.618Z,41.78
2022-12-08T10:29:55.159Z,41.79
2022-12-08T10:30:06.726Z,41.75
2022-12-08T10:30:18.727Z,41.77
2022-12-08T10:30:30.094Z,41.77
2022-12-08T10:30:41.639Z,41.77
2022-12-08T10:30:52.930Z,41.75
2022-12-08T10:31:04.529Z,41.77
2022-12-08T10:31:15.899Z,41.76
2022-12-08T10:31:27.517Z,41.76
2022-12-08T10:31:38.959Z,41.78
2022-12-08T10:31:50.707Z,41.79
2022-12-08T10:32:02.134Z,41.77
2022-12-08T10:32:13.723Z,41.78
2022-12-08T10:32:25.019Z,41.79
2022-12-08T10:32:36.569Z,41.78
2022-12-08T10:32:47.868Z,41.78
2022-12-08T10:32:59.430Z,41.75
2022-12-08T10:33:10.712Z,41.76
2022-12-08T10:33:22.290Z,41.76
2022-12-08T10:33:33.586Z,41.77
2022-12-08T10:33:45.145Z,41.77
2022-12-08T10:33:56.464Z,41.78
2022-12-08T10:34:08.030Z,41.76
2022-12-08T10:34:19.336Z,41.77
2022-12-08T10:34:30.889Z,41.76
2022-12-08T10:34:42.175Z,41.76
2022-12-08T10:34:56.457Z,41.76
2022-12-08T10:35:05.741Z,41.78
2022-12-08T10:35:17.277Z,41.78
2022-12-08T10:35:28.569Z,41.76
2022-12-08T10:35:40.115Z,41.74
2022-12-08T10:35:51.408Z,41.76
2022-12-08T10:36:03.008Z,41.78
2022-12-08T10:36:14.339Z,41.76
2022-12-08T10:36:26.100Z,41.79
2022-12-08T10:36:37.395Z,41.79
2022-12-08T10:36:48.937Z,41.76
2022-12-08T10:37:00.243Z,41.76
2022-12-08T10:37:11.793Z,41.74
2022-12-08T10:37:23.069Z,41.77
2022-12-08T10:37:34.612Z,41.75
2022-12-08T10:37:45.902Z,41.75
2022-12-08T10:37:57.440Z,41.77
2022-12-08T10:38:08.726Z,41.76
2022-12-08T10:38:20.281Z,41.75
2022-12-08T10:38:31.572Z,41.76
2022-12-08T10:38:43.150Z,41.77
2022-12-08T10:38:54.434Z,41.77
2022-12-08T10:39:06.000Z,41.76
2022-12-08T10:39:17.294Z,41.76
2022-12-08T10:39:28.835Z,41.75
2022-12-08T10:39:40.131Z,41.78
2022-12-08T10:39:51.685Z,41.76
2022-12-08T10:40:03.354Z,41.79
2022-12-08T10:40:15.357Z,41.77
2022-12-08T10:40:26.652Z,41.77
2022-12-08T10:40:45.282Z,41.75
2022-12-08T10:40:50.123Z,41.84
2022-12-08T10:41:01.417Z,41.83
2022-12-08T10:41:12.963Z,41.79
2022-12-08T10:41:24.249Z,41.75
2022-12-08T10:41:35.845Z,41.74
2022-12-08T10:41:47.124Z,41.77
2022-12-08T10:41:58.679Z,41.78
2022-12-08T10:42:09.965Z,41.79
2022-12-08T10:42:21.506Z,41.78
2022-12-08T10:42:32.805Z,41.77
2022-12-08T10:42:44.356Z,41.79
2022-12-08T10:42:55.643Z,41.78
2022-12-08T10:43:07.181Z,41.75
2022-12-08T10:43:18.469Z,41.76
2022-12-08T10:43:30.019Z,41.77
2022-12-08T10:43:41.307Z,41.77
2022-12-08T10:43:52.845Z,41.78
2022-12-08T10:44:04.135Z,41.74
2022-12-08T10:44:15.689Z,41.74
2022-12-08T10:44:26.983Z,41.76
2022-12-08T10:44:38.530Z,41.77
2022-12-08T10:44:49.811Z,41.78
2022-12-08T10:45:01.356Z,41.76
2022-12-08T10:45:12.643Z,41.80
2022-12-08T10:45:24.193Z,41.77
2022-12-08T10:45:35.494Z,41.76
2022-12-08T10:45:47.041Z,41.75
2022-12-08T10:45:58.342Z,41.79
2022-12-08T10:46:09.933Z,41.76
2022-12-08T10:46:21.384Z,41.76
2022-12-08T10:46:33.047Z,41.77
2022-12-08T10:46:44.467Z,41.78
2022-12-08T10:46:56.232Z,41.79
2022-12-08T10:47:07.654Z,41.77
2022-12-08T10:47:19.292Z,41.78
2022-12-08T10:47:30.602Z,41.77
2022-12-08T10:47:45.112Z,41.76
2022-12-08T10:47:55.507Z,41.82
2022-12-08T10:48:04.806Z,41.84
2022-12-08T10:48:16.338Z,41.79
2022-12-08T10:48:27.638Z,41.79
2022-12-08T10:48:39.181Z,41.76
2022-12-08T10:48:50.477Z,41.76
2022-12-08T10:49:02.029Z,41.78
2022-12-08T10:49:13.322Z,41.76
2022-12-08T10:49:24.864Z,41.77
2022-12-08T10:49:36.152Z,41.75
2022-12-08T10:49:47.697Z,41.77
2022-12-08T10:49:58.991Z,41.77
2022-12-08T10:50:10.573Z,41.78
2022-12-08T10:50:21.862Z,41.75
2022-12-08T10:50:33.407Z,41.77
2022-12-08T10:50:44.688Z,41.78
2022-12-08T10:50:56.256Z,41.76
2022-12-08T10:51:07.546Z,41.78
2022-12-08T10:51:19.086Z,41.78
2022-12-08T10:51:30.386Z,41.77
2022-12-08T10:51:41.943Z,41.76
2022-12-08T10:51:53.260Z,41.77
2022-12-08T10:52:04.798Z,41.77
2022-12-08T10:52:16.084Z,41.77
2022-12-08T10:52:27.618Z,41.80
2022-12-08T10:52:38.903Z,41.76
2022-12-08T10:52:50.445Z,41.77
2022-12-08T10:53:01.734Z,41.78
2022-12-08T10:53:13.286Z,41.78
2022-12-08T10:53:24.583Z,41.77
2022-12-08T10:53:36.152Z,41.75
2022-12-08T10:53:47.458Z,41.77
2022-12-08T10:53:59.008Z,41.76
2022-12-08T10:54:10.293Z,41.78
2022-12-08T10:54:22.090Z,41.75
2022-12-08T10:54:33.465Z,41.78
2022-12-08T10:54:45.013Z,41.76
2022-12-08T10:54:56.295Z,41.78
2022-12-08T10:55:07.840Z,41.77
2022-12-08T10:55:19.137Z,41.76
2022-12-08T10:55:30.678Z,41.79
2022-12-08T10:55:42.003Z,41.78
2022-12-08T10:55:53.564Z,41.78
2022-12-08T10:56:04.858Z,41.77
2022-12-08T10:56:16.521Z,41.76
2022-12-08T10:56:27.901Z,41.78
2022-12-08T10:56:39.559Z,41.75
2022-12-08T10:56:50.846Z,41.75
2022-12-08T10:57:02.456Z,41.76
2022-12-08T10:57:13.749Z,41.76
2022-12-08T10:57:25.286Z,41.77
2022-12-08T10:57:36.580Z,41.75
2022-12-08T10:57:48.128Z,41.78
2022-12-08T10:57:59.411Z,41.75
2022-12-08T10:58:10.954Z,41.76
2022-12-08T10:58:22.242Z,41.73
2022-12-08T10:58:33.779Z,41.74
2022-12-08T10:58:45.067Z,41.74
2022-12-08T10:58:56.604Z,41.77
2022-12-08T10:59:07.887Z,41.74
2022-12-08T10:59:19.423Z,41.77
2022-12-08T10:59:30.708Z,41.75
2022-12-08T10:59:42.254Z,41.74
2022-12-08T10:59:53.540Z,41.75
2022-12-08T11:00:10.942Z,41.77